sensor_id;sensor_type;location;lat;lon;timestamp;pressure;altitude;pressure_sealevel;temperature;humidity
67517;BME280;68821;59.134;37.894;2023-04-01T00:00:29;98847.28;;;-0.67;63.60
67517;BME280;68821;59.134;37.894;2023-04-01T00:02:56;98852.19;;;-0.70;63.33
67517;BME280;68821;59.134;37.894;2023-04-01T00:05:22;98852.16;;;-0.72;63.76
67517;BME280;68821;59.134;37.894;2023-04-01T00:07:50;98844.47;;;-0.75;63.29
67517;BME280;68821;59.134;37.894;2023-04-01T00:10:16;98848.59;;;-0.77;62.92
67517;BME280;68821;59.134;37.894;2023-04-01T00:12:43;98845.91;;;-0.82;63.18
67517;BME280;68821;59.134;37.894;2023-04-01T00:15:11;98848.50;;;-0.80;63.34
67517;BME280;68821;59.134;37.894;2023-04-01T00:17:38;98839.03;;;-0.86;63.36
67517;BME280;68821;59.134;37.894;2023-04-01T00:20:05;98840.72;;;-0.86;63.62
67517;BME280;68821;59.134;37.894;2023-04-01T00:22:31;98836.22;;;-0.93;63.55
67517;BME280;68821;59.134;37.894;2023-04-01T00:24:57;98843.03;;;-0.91;64.07
67517;BME280;68821;59.134;37.894;2023-04-01T00:27:24;98848.97;;;-0.90;63.81
67517;BME280;68821;59.134;37.894;2023-04-01T00:29:50;98848.97;;;-0.90;63.86
67517;BME280;68821;59.134;37.894;2023-04-01T00:32:17;98837.03;;;-0.94;64.23
67517;BME280;68821;59.134;37.894;2023-04-01T00:34:43;98845.53;;;-0.92;64.21
67517;BME280;68821;59.134;37.894;2023-04-01T00:37:10;98830.94;;;-0.99;63.83
67517;BME280;68821;59.134;37.894;2023-04-01T00:39:37;98834.31;;;-0.99;64.23
67517;BME280;68821;59.134;37.894;2023-04-01T00:42:04;98833.31;;;-1.04;64.53
67517;BME280;68821;59.134;37.894;2023-04-01T00:44:33;98837.50;;;-1.05;64.09
67517;BME280;68821;59.134;37.894;2023-04-01T00:47:00;98833.22;;;-1.06;64.24
67517;BME280;68821;59.134;37.894;2023-04-01T00:49:30;98829.78;;;-1.08;64.27
67517;BME280;68821;59.134;37.894;2023-04-01T00:51:59;98829.69;;;-1.11;64.66
67517;BME280;68821;59.134;37.894;2023-04-01T00:54:29;98826.28;;;-1.11;64.34
67517;BME280;68821;59.134;37.894;2023-04-01T00:57:08;98823.66;;;-1.14;64.46
67517;BME280;68821;59.134;37.894;2023-04-01T01:00:03;98822.75;;;-1.16;64.63
67517;BME280;68821;59.134;37.894;2023-04-01T01:02:31;98829.47;;;-1.17;64.40
67517;BME280;68821;59.134;37.894;2023-04-01T01:04:59;98828.53;;;-1.19;64.40
67517;BME280;68821;59.134;37.894;2023-04-01T01:10:53;98824.88;;;-1.27;64.06
67517;BME280;68821;59.134;37.894;2023-04-01T01:13:34;98830.75;;;-1.27;63.92
67517;BME280;68821;59.134;37.894;2023-04-01T01:16:33;98832.28;;;-1.30;64.33
67517;BME280;68821;59.134;37.894;2023-04-01T01:19:09;98850.06;;;-1.27;64.51
67517;BME280;68821;59.134;37.894;2023-04-01T01:21:55;98839.69;;;-1.35;64.96
67517;BME280;68821;59.134;37.894;2023-04-01T01:27:07;98849.84;;;-1.33;65.21
67517;BME280;68821;59.134;37.894;2023-04-01T01:29:58;98848.94;;;-1.34;65.01
67517;BME280;68821;59.134;37.894;2023-04-01T01:32:43;98845.34;;;-1.40;64.76
67517;BME280;68821;59.134;37.894;2023-04-01T01:38:28;98837.22;;;-1.54;64.57
67517;BME280;68821;59.134;37.894;2023-04-01T01:40:56;98851.00;;;-1.46;64.31
67517;BME280;68821;59.134;37.894;2023-04-01T01:43:29;98850.88;;;-1.49;65.11
67517;BME280;68821;59.134;37.894;2023-04-01T01:45:59;98834.72;;;-1.54;65.44
67517;BME280;68821;59.134;37.894;2023-04-01T01:48:27;98844.06;;;-1.52;65.28
67517;BME280;68821;59.134;37.894;2023-04-01T01:50:55;98842.22;;;-1.56;65.19
67517;BME280;68821;59.134;37.894;2023-04-01T01:53:22;98842.16;;;-1.57;65.16
67517;BME280;68821;59.134;37.894;2023-04-01T01:55:48;98842.91;;;-1.60;64.98
67517;BME280;68821;59.134;37.894;2023-04-01T01:58:37;98840.13;;;-1.66;65.85
67517;BME280;68821;59.134;37.894;2023-04-01T02:01:13;98832.34;;;-1.72;64.78
67517;BME280;68821;59.134;37.894;2023-04-01T02:03:42;98838.34;;;-1.69;64.63
67517;BME280;68821;59.134;37.894;2023-04-01T02:06:15;98840.81;;;-1.70;65.65
67517;BME280;68821;59.134;37.894;2023-04-01T02:08:47;98828.75;;;-1.77;64.88
67517;BME280;68821;59.134;37.894;2023-04-01T02:11:17;98829.50;;;-1.80;65.41
67517;BME280;68821;59.134;37.894;2023-04-01T02:13:56;98836.25;;;-1.79;65.79
67517;BME280;68821;59.134;37.894;2023-04-01T02:16:31;98839.56;;;-1.80;65.55
67517;BME280;68821;59.134;37.894;2023-04-01T02:18:58;98837.84;;;-1.81;65.42
67517;BME280;68821;59.134;37.894;2023-04-01T02:21:27;98829.44;;;-1.82;64.95
67517;BME280;68821;59.134;37.894;2023-04-01T02:23:56;98833.69;;;-1.80;65.44
67517;BME280;68821;59.134;37.894;2023-04-01T02:26:24;98836.06;;;-1.84;65.50
67517;BME280;68821;59.134;37.894;2023-04-01T02:28:54;98837.59;;;-1.87;65.71
67517;BME280;68821;59.134;37.894;2023-04-01T02:31:21;98841.91;;;-1.85;65.11
67517;BME280;68821;59.134;37.894;2023-04-01T02:33:48;98835.94;;;-1.87;65.81
67517;BME280;68821;59.134;37.894;2023-04-01T02:36:15;98832.44;;;-1.90;65.56
67517;BME280;68821;59.134;37.894;2023-04-01T02:38:44;98834.88;;;-1.92;65.20
67517;BME280;68821;59.134;37.894;2023-04-01T02:41:11;98842.44;;;-1.92;65.86
67517;BME280;68821;59.134;37.894;2023-04-01T02:43:38;98836.47;;;-1.94;65.80
67517;BME280;68821;59.134;37.894;2023-04-01T02:46:04;98846.44;;;-1.97;66.25
67517;BME280;68821;59.134;37.894;2023-04-01T02:48:30;98848.94;;;-1.97;65.53
67517;BME280;68821;59.134;37.894;2023-04-01T02:50:56;98843.00;;;-1.99;65.74
67517;BME280;68821;59.134;37.894;2023-04-01T02:53:23;98841.31;;;-1.98;65.96
67517;BME280;68821;59.134;37.894;2023-04-01T02:55:49;98827.41;;;-2.10;66.09
67517;BME280;68821;59.134;37.894;2023-04-01T02:58:18;98844.69;;;-1.98;66.68
67517;BME280;68821;59.134;37.894;2023-04-01T03:00:44;98843.84;;;-1.98;66.43
67517;BME280;68821;59.134;37.894;2023-04-01T03:03:10;98846.44;;;-1.97;66.37
67517;BME280;68821;59.134;37.894;2023-04-01T03:05:38;98837.28;;;-1.95;66.20
67517;BME280;68821;59.134;37.894;2023-04-01T03:08:04;98839.00;;;-1.94;66.71
67517;BME280;68821;59.134;37.894;2023-04-01T03:10:30;98840.78;;;-1.91;66.37
67517;BME280;68821;59.134;37.894;2023-04-01T03:12:56;98819.25;;;-2.04;66.48
67517;BME280;68821;59.134;37.894;2023-04-01T03:15:22;98846.94;;;-1.85;67.09
67517;BME280;68821;59.134;37.894;2023-04-01T03:17:48;98840.31;;;-1.83;66.83
67517;BME280;68821;59.134;37.894;2023-04-01T03:20:15;98830.28;;;-1.81;66.81
67517;BME280;68821;59.134;37.894;2023-04-01T03:22:41;98839.81;;;-1.74;67.13
67517;BME280;68821;59.134;37.894;2023-04-01T03:25:07;98834.84;;;-1.72;67.24
67517;BME280;68821;59.134;37.894;2023-04-01T03:27:34;98843.44;;;-1.67;66.48
67517;BME280;68821;59.134;37.894;2023-04-01T03:30:03;98834.19;;;-1.68;66.60
67517;BME280;68821;59.134;37.894;2023-04-01T03:32:29;98838.56;;;-1.63;66.89
67517;BME280;68821;59.134;37.894;2023-04-01T03:34:56;98832.88;;;-1.58;66.82
67517;BME280;68821;59.134;37.894;2023-04-01T03:37:23;98834.78;;;-1.53;66.80
67517;BME280;68821;59.134;37.894;2023-04-01T03:39:49;98824.59;;;-1.56;66.47
67517;BME280;68821;59.134;37.894;2023-04-01T03:42:15;98830.78;;;-1.48;67.29
67517;BME280;68821;59.134;37.894;2023-04-01T03:44:41;98833.34;;;-1.46;66.06
67517;BME280;68821;59.134;37.894;2023-04-01T03:47:07;98830.97;;;-1.43;67.05
67517;BME280;68821;59.134;37.894;2023-04-01T03:49:35;98830.34;;;-1.37;66.46
67517;BME280;68821;59.134;37.894;2023-04-01T03:52:01;98837.16;;;-1.35;66.42
67517;BME280;68821;59.134;37.894;2023-04-01T03:54:27;98833.13;;;-1.31;66.84
67517;BME280;68821;59.134;37.894;2023-04-01T03:56:53;98834.94;;;-1.27;66.68
67517;BME280;68821;59.134;37.894;2023-04-01T03:59:20;98834.28;;;-1.23;66.47
67517;BME280;68821;59.134;37.894;2023-04-01T04:01:47;98828.34;;;-1.24;66.72
67517;BME280;68821;59.134;37.894;2023-04-01T04:04:13;98838.66;;;-1.17;66.36
67517;BME280;68821;59.134;37.894;2023-04-01T04:06:40;98843.00;;;-1.15;66.22
67517;BME280;68821;59.134;37.894;2023-04-01T04:09:06;98838.13;;;-1.10;66.71
67517;BME280;68821;59.134;37.894;2023-04-01T04:11:32;98846.75;;;-1.04;66.79
67517;BME280;68821;59.134;37.894;2023-04-01T04:13:59;98847.81;;;-0.98;66.56
67517;BME280;68821;59.134;37.894;2023-04-01T04:16:25;98829.97;;;-1.03;66.20
67517;BME280;68821;59.134;37.894;2023-04-01T04:18:51;98839.09;;;-0.84;66.84
67517;BME280;68821;59.134;37.894;2023-04-01T04:21:17;98844.41;;;-0.76;66.30
67517;BME280;68821;59.134;37.894;2023-04-01T04:23:43;98846.31;;;-0.71;65.79
67517;BME280;68821;59.134;37.894;2023-04-01T04:26:12;98842.31;;;-0.66;66.37
67517;BME280;68821;59.134;37.894;2023-04-01T04:28:39;98839.09;;;-0.62;66.42
67517;BME280;68821;59.134;37.894;2023-04-01T04:31:05;98845.28;;;-0.53;66.10
67517;BME280;68821;59.134;37.894;2023-04-01T04:33:32;98843.00;;;-0.46;66.15
67517;BME280;68821;59.134;37.894;2023-04-01T04:35:59;98843.91;;;-0.44;65.99
67517;BME280;68821;59.134;37.894;2023-04-01T04:38:26;98846.66;;;-0.37;66.04
67517;BME280;68821;59.134;37.894;2023-04-01T04:40:52;98850.31;;;-0.29;66.17
67517;BME280;68821;59.134;37.894;2023-04-01T04:43:18;98848.75;;;-0.26;66.24
67517;BME280;68821;59.134;37.894;2023-04-01T04:45:45;98852.34;;;-0.19;66.05
67517;BME280;68821;59.134;37.894;2023-04-01T04:48:13;98855.91;;;-0.14;66.19
67517;BME280;68821;59.134;37.894;2023-04-01T04:50:45;98856.13;;;-0.08;66.20
67517;BME280;68821;59.134;37.894;2023-04-01T04:53:12;98860.69;;;0.03;65.85
67517;BME280;68821;59.134;37.894;2023-04-01T04:55:43;98853.41;;;0.12;66.14
67517;BME280;68821;59.134;37.894;2023-04-01T04:58:10;98856.97;;;0.17;65.92
67517;BME280;68821;59.134;37.894;2023-04-01T05:00:36;98858.00;;;0.24;65.82
67517;BME280;68821;59.134;37.894;2023-04-01T05:03:02;98860.81;;;0.31;65.71
67517;BME280;68821;59.134;37.894;2023-04-01T05:05:28;98861.97;;;0.41;65.36
67517;BME280;68821;59.134;37.894;2023-04-01T05:07:54;98867.31;;;0.50;65.61
67517;BME280;68821;59.134;37.894;2023-04-01T05:10:20;98862.44;;;0.56;65.58
67517;BME280;68821;59.134;37.894;2023-04-01T05:12:46;98861.09;;;0.66;65.16
67517;BME280;68821;59.134;37.894;2023-04-01T05:15:12;98857.91;;;0.73;65.48
67517;BME280;68821;59.134;37.894;2023-04-01T05:17:39;98865.88;;;0.84;65.23
67517;BME280;68821;59.134;37.894;2023-04-01T05:20:06;98864.56;;;0.97;65.16
67517;BME280;68821;59.134;37.894;2023-04-01T05:22:32;98864.81;;;1.06;64.91
67517;BME280;68821;59.134;37.894;2023-04-01T05:24:58;98871.09;;;1.17;64.87
67517;BME280;68821;59.134;37.894;2023-04-01T05:27:25;98869.63;;;1.26;64.72
67517;BME280;68821;59.134;37.894;2023-04-01T05:29:51;98863.97;;;1.34;64.76
67517;BME280;68821;59.134;37.894;2023-04-01T05:32:17;98860.94;;;1.46;64.45
67517;BME280;68821;59.134;37.894;2023-04-01T05:34:43;98852.84;;;1.58;64.57
67517;BME280;68821;59.134;37.894;2023-04-01T05:37:09;98863.38;;;1.73;64.45
67517;BME280;68821;59.134;37.894;2023-04-01T05:39:38;98860.38;;;1.87;64.12
67517;BME280;68821;59.134;37.894;2023-04-01T05:42:06;98861.63;;;2.01;64.18
67517;BME280;68821;59.134;37.894;2023-04-01T05:44:32;98851.66;;;2.09;63.63
67517;BME280;68821;59.134;37.894;2023-04-01T05:46:59;98858.72;;;2.20;63.68
67517;BME280;68821;59.134;37.894;2023-04-01T05:49:25;98869.16;;;2.33;63.67
67517;BME280;68821;59.134;37.894;2023-04-01T05:51:51;98859.22;;;2.40;63.35
67517;BME280;68821;59.134;37.894;2023-04-01T05:54:18;98859.56;;;2.54;63.13
67517;BME280;68821;59.134;37.894;2023-04-01T05:56:44;98853.00;;;2.63;63.58
67517;BME280;68821;59.134;37.894;2023-04-01T05:59:11;98862.41;;;2.68;63.28
67517;BME280;68821;59.134;37.894;2023-04-01T06:01:38;98857.53;;;2.76;63.22
67517;BME280;68821;59.134;37.894;2023-04-01T06:04:04;98854.44;;;2.88;62.97
67517;BME280;68821;59.134;37.894;2023-04-01T06:06:31;98858.00;;;2.96;62.64
67517;BME280;68821;59.134;37.894;2023-04-01T06:09:07;98856.44;;;3.02;62.41
67517;BME280;68821;59.134;37.894;2023-04-01T06:31:47;98849.94;;;3.15;61.61
67517;BME280;68821;59.134;37.894;2023-04-01T06:34:29;98847.69;;;3.28;61.81
67517;BME280;68821;59.134;37.894;2023-04-01T06:40:08;98859.41;;;3.62;61.11
67517;BME280;68821;59.134;37.894;2023-04-01T06:45:39;98853.31;;;3.99;60.41
67517;BME280;68821;59.134;37.894;2023-04-01T06:56:28;98845.13;;;4.64;59.58
67517;BME280;68821;59.134;37.894;2023-04-01T06:59:12;98850.38;;;4.75;59.72
67517;BME280;68821;59.134;37.894;2023-04-01T07:01:45;98844.56;;;4.82;59.29
67517;BME280;68821;59.134;37.894;2023-04-01T07:04:20;98842.13;;;4.90;59.07
67517;BME280;68821;59.134;37.894;2023-04-01T07:07:04;98850.75;;;5.01;58.64
67517;BME280;68821;59.134;37.894;2023-04-01T07:09:35;98846.66;;;5.11;58.94
67517;BME280;68821;59.134;37.894;2023-04-01T07:12:11;98846.84;;;5.27;58.54
67517;BME280;68821;59.134;37.894;2023-04-01T07:14:41;98847.03;;;5.39;58.40
67517;BME280;68821;59.134;37.894;2023-04-01T07:17:15;98848.09;;;5.56;58.61
67517;BME280;68821;59.134;37.894;2023-04-01T07:22:48;98844.94;;;5.77;57.51
67517;BME280;68821;59.134;37.894;2023-04-01T07:25:33;98855.13;;;5.77;57.66
67517;BME280;68821;59.134;37.894;2023-04-01T07:28:04;98851.69;;;5.74;57.35
67517;BME280;68821;59.134;37.894;2023-04-01T07:30:51;98852.53;;;5.73;56.96
67517;BME280;68821;59.134;37.894;2023-04-01T07:36:28;98858.50;;;5.75;56.71
67517;BME280;68821;59.134;37.894;2023-04-01T07:39:06;98869.50;;;5.69;56.21
67517;BME280;68821;59.134;37.894;2023-04-01T07:41:45;98861.75;;;5.60;56.52
67517;BME280;68821;59.134;37.894;2023-04-01T07:52:47;98858.22;;;5.50;56.54
67517;BME280;68821;59.134;37.894;2023-04-01T08:00:45;98864.50;;;5.80;55.41
67517;BME280;68821;59.134;37.894;2023-04-01T08:06:08;98864.75;;;5.98;55.02
67517;BME280;68821;59.134;37.894;2023-04-01T08:14:08;98864.28;;;6.36;54.59
67517;BME280;68821;59.134;37.894;2023-04-01T08:21:58;98866.31;;;6.76;53.56
67517;BME280;68821;59.134;37.894;2023-04-01T08:24:39;98863.84;;;6.88;53.36
67517;BME280;68821;59.134;37.894;2023-04-01T08:27:16;98863.06;;;6.95;52.76
67517;BME280;68821;59.134;37.894;2023-04-01T08:29:51;98866.53;;;7.03;52.91
67517;BME280;68821;59.134;37.894;2023-04-01T08:32:42;98864.00;;;7.10;52.35
67517;BME280;68821;59.134;37.894;2023-04-01T08:35:24;98872.56;;;7.15;52.05
67517;BME280;68821;59.134;37.894;2023-04-01T08:37:54;98875.13;;;7.16;51.48
67517;BME280;68821;59.134;37.894;2023-04-01T08:43:55;98875.09;;;7.15;51.60
67517;BME280;68821;59.134;37.894;2023-04-01T08:52:05;98875.09;;;7.15;51.00
67517;BME280;68821;59.134;37.894;2023-04-01T09:00:57;98873.63;;;7.54;49.85
67517;BME280;68821;59.134;37.894;2023-04-01T09:06:19;98877.16;;;7.86;49.27
67517;BME280;68821;59.134;37.894;2023-04-01T09:26:17;98880.75;;;8.58;48.06
67517;BME280;68821;59.134;37.894;2023-04-01T09:29:26;98883.34;;;8.72;47.83
67517;BME280;68821;59.134;37.894;2023-04-01T09:43:43;98884.06;;;9.49;46.30
67517;BME280;68821;59.134;37.894;2023-04-01T09:57:30;98872.56;;;15.18;40.02
67517;BME280;68821;59.134;37.894;2023-04-01T10:36:53;98869.94;;;29.02;23.29
67517;BME280;68821;59.134;37.894;2023-04-01T11:10:21;98883.75;;;29.99;20.62
67517;BME280;68821;59.134;37.894;2023-04-01T11:27:17;98903.47;;;24.72;21.79
67517;BME280;68821;59.134;37.894;2023-04-01T11:35:19;98910.88;;;22.77;23.39
67517;BME280;68821;59.134;37.894;2023-04-01T11:38:18;98918.06;;;22.10;23.76
67517;BME280;68821;59.134;37.894;2023-04-01T11:40:59;98915.50;;;21.59;23.58
67517;BME280;68821;59.134;37.894;2023-04-01T11:43:50;98921.03;;;21.18;24.23
67517;BME280;68821;59.134;37.894;2023-04-01T11:49:33;98922.53;;;19.34;25.62
67517;BME280;68821;59.134;37.894;2023-04-01T11:54:48;98926.59;;;17.60;26.64
67517;BME280;68821;59.134;37.894;2023-04-01T11:57:35;98926.97;;;16.98;27.12
67517;BME280;68821;59.134;37.894;2023-04-01T12:03:41;98935.84;;;16.62;27.60
67517;BME280;68821;59.134;37.894;2023-04-01T12:08:59;98931.88;;;16.50;27.84
67517;BME280;68821;59.134;37.894;2023-04-01T12:12:02;98939.31;;;16.03;28.12
67517;BME280;68821;59.134;37.894;2023-04-01T12:26:10;98957.56;;;16.60;28.44
67517;BME280;68821;59.134;37.894;2023-04-01T12:37:42;98956.38;;;16.70;28.04
67517;BME280;68821;59.134;37.894;2023-04-01T12:48:38;98963.78;;;15.60;29.46
67517;BME280;68821;59.134;37.894;2023-04-01T12:56:12;98978.59;;;15.21;29.79
67517;BME280;68821;59.134;37.894;2023-04-01T13:06:44;98987.94;;;14.09;30.68
67517;BME280;68821;59.134;37.894;2023-04-01T13:10:06;98997.97;;;13.81;30.60
67517;BME280;68821;59.134;37.894;2023-04-01T13:20:58;98991.31;;;12.58;31.82
67517;BME280;68821;59.134;37.894;2023-04-01T13:23:54;99011.44;;;12.28;32.16
67517;BME280;68821;59.134;37.894;2023-04-01T13:29:36;99008.44;;;11.92;32.79
67517;BME280;68821;59.134;37.894;2023-04-01T13:32:18;99002.53;;;11.79;32.92
67517;BME280;68821;59.134;37.894;2023-04-01T13:34:59;99005.22;;;11.67;33.13
67517;BME280;68821;59.134;37.894;2023-04-01T13:40:23;99011.28;;;11.63;33.20
67517;BME280;68821;59.134;37.894;2023-04-01T13:42:57;99003.44;;;11.75;33.48
67517;BME280;68821;59.134;37.894;2023-04-01T13:45:47;99008.66;;;11.67;33.24
67517;BME280;68821;59.134;37.894;2023-04-01T14:02:02;99015.03;;;12.16;33.35
67517;BME280;68821;59.134;37.894;2023-04-01T14:12:58;99039.72;;;11.46;34.44
67517;BME280;68821;59.134;37.894;2023-04-01T14:15:42;99043.41;;;11.14;34.40
67517;BME280;68821;59.134;37.894;2023-04-01T14:40:56;99061.06;;;9.84;36.03
67517;BME280;68821;59.134;37.894;2023-04-01T14:43:52;99056.78;;;9.77;35.63
67517;BME280;68821;59.134;37.894;2023-04-01T14:49:32;99067.91;;;9.64;36.17
67517;BME280;68821;59.134;37.894;2023-04-01T14:52:09;99067.94;;;9.52;36.51
67517;BME280;68821;59.134;37.894;2023-04-01T14:54:40;99073.06;;;9.44;36.45
67517;BME280;68821;59.134;37.894;2023-04-01T15:12:07;99089.19;;;8.80;37.30
67517;BME280;68821;59.134;37.894;2023-04-01T15:28:57;99120.44;;;8.14;38.07
67517;BME280;68821;59.134;37.894;2023-04-01T15:43:03;99152.41;;;7.60;38.98
67517;BME280;68821;59.134;37.894;2023-04-01T15:49:01;99159.03;;;7.36;39.36
67517;BME280;68821;59.134;37.894;2023-04-01T16:02:43;99184.69;;;6.74;41.13
67517;BME280;68821;59.134;37.894;2023-04-01T16:08:21;99195.97;;;6.29;43.14
67517;BME280;68821;59.134;37.894;2023-04-01T16:10:58;99200.00;;;6.14;42.73
67517;BME280;68821;59.134;37.894;2023-04-01T16:16:33;99213.97;;;5.86;43.65
67517;BME280;68821;59.134;37.894;2023-04-01T16:24:48;99220.19;;;5.53;45.30
67517;BME280;68821;59.134;37.894;2023-04-01T16:27:40;99222.63;;;5.47;45.86
67517;BME280;68821;59.134;37.894;2023-04-01T16:30:38;99235.41;;;5.49;46.17
67517;BME280;68821;59.134;37.894;2023-04-01T16:36:22;99238.69;;;5.41;46.61
67517;BME280;68821;59.134;37.894;2023-04-01T16:41:49;99248.66;;;5.29;47.80
67517;BME280;68821;59.134;37.894;2023-04-01T16:46:52;99250.06;;;5.16;48.41
67517;BME280;68821;59.134;37.894;2023-04-01T16:49:33;99247.44;;;5.12;48.55
67517;BME280;68821;59.134;37.894;2023-04-01T16:54:55;99260.03;;;5.06;49.65
67517;BME280;68821;59.134;37.894;2023-04-01T16:57:43;99261.66;;;5.02;49.48
67517;BME280;68821;59.134;37.894;2023-04-01T17:00:37;99260.75;;;4.98;49.65
67517;BME280;68821;59.134;37.894;2023-04-01T17:11:24;99274.16;;;4.91;50.38
67517;BME280;68821;59.134;37.894;2023-04-01T17:20:11;99296.81;;;4.79;51.04
67517;BME280;68821;59.134;37.894;2023-04-01T17:33:55;99307.56;;;4.67;52.01
67517;BME280;68821;59.134;37.894;2023-04-01T17:42:10;99312.38;;;4.53;52.02
67517;BME280;68821;59.134;37.894;2023-04-01T17:44:52;99309.69;;;4.49;52.42
67517;BME280;68821;59.134;37.894;2023-04-01T17:47:40;99320.66;;;4.46;52.59
67517;BME280;68821;59.134;37.894;2023-04-01T17:50:22;99315.44;;;4.40;53.31
67517;BME280;68821;59.134;37.894;2023-04-01T18:06:36;99316.66;;;4.21;53.91
67517;BME280;68821;59.134;37.894;2023-04-01T18:23:24;99323.78;;;4.01;54.90
67517;BME280;68821;59.134;37.894;2023-04-01T18:26:07;99334.78;;;4.00;54.63
67517;BME280;68821;59.134;37.894;2023-04-01T18:28:41;99330.50;;;3.99;55.35
67517;BME280;68821;59.134;37.894;2023-04-01T18:31:15;99330.44;;;3.96;55.65
67517;BME280;68821;59.134;37.894;2023-04-01T18:33:57;99331.28;;;3.96;55.72
67517;BME280;68821;59.134;37.894;2023-04-01T18:39:30;99332.06;;;3.94;56.09
67517;BME280;68821;59.134;37.894;2023-04-01T18:47:38;99343.78;;;3.89;56.03
67517;BME280;68821;59.134;37.894;2023-04-01T18:50:43;99344.53;;;3.85;56.46
67517;BME280;68821;59.134;37.894;2023-04-01T18:56:11;99338.50;;;3.81;56.52
67517;BME280;68821;59.134;37.894;2023-04-01T18:59:05;99348.59;;;3.78;56.30
67517;BME280;68821;59.134;37.894;2023-04-01T19:04:39;99355.19;;;3.71;56.88
67517;BME280;68821;59.134;37.894;2023-04-01T19:15:59;99348.63;;;3.49;57.07
67517;BME280;68821;59.134;37.894;2023-04-01T19:18:34;99349.44;;;3.48;57.25
67517;BME280;68821;59.134;37.894;2023-04-01T19:21:21;99351.97;;;3.47;57.65
67517;BME280;68821;59.134;37.894;2023-04-01T19:26:46;99349.44;;;3.48;57.40
67517;BME280;68821;59.134;37.894;2023-04-01T19:32:12;99332.38;;;3.42;58.31
67517;BME280;68821;59.134;37.894;2023-04-01T19:37:26;99351.47;;;3.60;58.24
67517;BME280;68821;59.134;37.894;2023-04-01T19:46:06;99351.81;;;3.72;58.62
67517;BME280;68821;59.134;37.894;2023-04-01T19:54:18;99355.38;;;3.79;59.15
67517;BME280;68821;59.134;37.894;2023-04-01T20:10:23;99377.50;;;3.81;59.05
67517;BME280;68821;59.134;37.894;2023-04-01T20:12:59;99378.25;;;3.79;59.08
67517;BME280;68821;59.134;37.894;2023-04-01T20:15:39;99391.75;;;3.76;59.58
67517;BME280;68821;59.134;37.894;2023-04-01T20:18:19;99385.75;;;3.74;59.51
67517;BME280;68821;59.134;37.894;2023-04-01T20:26:42;99393.94;;;3.64;60.04
67517;BME280;68821;59.134;37.894;2023-04-01T20:32:10;99394.63;;;3.58;60.53
67517;BME280;68821;59.134;37.894;2023-04-01T20:38:05;99397.09;;;3.55;60.83
67517;BME280;68821;59.134;37.894;2023-04-01T20:41:02;99397.00;;;3.52;60.69
67517;BME280;68821;59.134;37.894;2023-04-01T20:43:58;99400.41;;;3.53;61.06
67517;BME280;68821;59.134;37.894;2023-04-01T20:47:00;99396.97;;;3.51;61.17
67517;BME280;68821;59.134;37.894;2023-04-01T20:57:49;99406.78;;;3.38;61.43
67517;BME280;68821;59.134;37.894;2023-04-01T21:05:49;99405.69;;;3.32;62.02
67517;BME280;68821;59.134;37.894;2023-04-01T21:09:11;99411.56;;;3.29;61.90
67517;BME280;68821;59.134;37.894;2023-04-01T21:11:27;99410.50;;;3.22;62.10
67517;BME280;68821;59.134;37.894;2023-04-01T21:44:04;99433.63;;;3.32;63.55
67517;BME280;68821;59.134;37.894;2023-04-01T21:49:31;99420.13;;;3.33;63.57
67517;BME280;68821;59.134;37.894;2023-04-01T21:52:16;99427.03;;;3.37;63.55
67517;BME280;68821;59.134;37.894;2023-04-01T21:55:13;99423.72;;;3.39;63.81
67517;BME280;68821;59.134;37.894;2023-04-01T22:00:32;99423.72;;;3.39;63.38
67517;BME280;68821;59.134;37.894;2023-04-01T22:05:56;99419.41;;;3.37;63.96
67517;BME280;68821;59.134;37.894;2023-04-01T22:08:34;99418.56;;;3.36;63.62
67517;BME280;68821;59.134;37.894;2023-04-01T22:11:18;99420.22;;;3.36;63.79
67517;BME280;68821;59.134;37.894;2023-04-01T22:14:01;99428.56;;;3.32;63.87
67517;BME280;68821;59.134;37.894;2023-04-01T22:16:42;99427.63;;;3.28;63.92
67517;BME280;68821;59.134;37.894;2023-04-01T22:19:36;99435.97;;;3.24;64.01
67517;BME280;68821;59.134;37.894;2023-04-01T22:43:11;99444.19;;;3.17;64.45
67517;BME280;68821;59.134;37.894;2023-04-01T22:46:07;99449.41;;;3.21;64.93
67517;BME280;68821;59.134;37.894;2023-04-01T22:48:36;99444.38;;;3.23;64.54
67517;BME280;68821;59.134;37.894;2023-04-01T22:52:01;99448.66;;;3.24;64.86
67517;BME280;68821;59.134;37.894;2023-04-01T22:54:31;99453.03;;;3.28;65.04
67517;BME280;68821;59.134;37.894;2023-04-01T23:00:06;99454.75;;;3.29;64.68
67517;BME280;68821;59.134;37.894;2023-04-01T23:02:39;99452.13;;;3.28;64.64
67517;BME280;68821;59.134;37.894;2023-04-01T23:05:14;99452.91;;;3.25;64.39
67517;BME280;68821;59.134;37.894;2023-04-01T23:13:01;99463.19;;;3.28;64.93
67517;BME280;68821;59.134;37.894;2023-04-01T23:15:30;99452.78;;;3.20;64.88
67517;BME280;68821;59.134;37.894;2023-04-01T23:18:35;99458.91;;;3.27;65.07
67517;BME280;68821;59.134;37.894;2023-04-01T23:29:17;99460.59;;;3.27;65.09
67517;BME280;68821;59.134;37.894;2023-04-01T23:31:47;99464.94;;;3.31;65.28
67517;BME280;68821;59.134;37.894;2023-04-01T23:36:43;99451.34;;;3.29;65.08
67517;BME280;68821;59.134;37.894;2023-04-01T23:39:30;99448.75;;;3.27;65.38
67517;BME280;68821;59.134;37.894;2023-04-01T23:42:00;99441.84;;;3.23;65.28
67517;BME280;68821;59.134;37.894;2023-04-01T23:44:28;99446.22;;;3.27;65.43
67517;BME280;68821;59.134;37.894;2023-04-01T23:46:57;99448.81;;;3.29;65.82
67517;BME280;68821;59.134;37.894;2023-04-01T23:49:30;99447.97;;;3.30;65.93
67517;BME280;68821;59.134;37.894;2023-04-01T23:52:03;99455.69;;;3.33;66.06
67517;BME280;68821;59.134;37.894;2023-04-01T23:54:47;99461.69;;;3.35;65.80
67517;BME280;68821;59.134;37.894;2023-04-01T23:57:19;99467.75;;;3.38;65.83
